Time;durP1;ratioP1;P1;durP2;ratioP2;P2;SDS_P1;SDS_P2;PMS_P1;PMS_P2;Temp;Humidity;BMP_temperature;BMP_pressure;BME280_temperature;BME280_humidity;BME280_pressure;Samples;Min_cycle;Max_cycle;Signal;HPM_P1;HPM_P2
2023/01/30 00:01:39;;;;;;;19.75;9.82;;;;;;;4.50;54.02;101223.09;5011433;28;20030;-81
2023/01/30 00:04:05;;;;;;;16.40;9.02;;;;;;;4.50;54.39;101229.31;5010215;28;20040;-82
2023/01/30 00:06:31;;;;;;;16.48;9.48;;;;;;;4.32;54.46;101212.38;5010980;28;20030;-81
2023/01/30 00:08:56;;;;;;;18.38;9.82;;;;;;;4.46;54.44;101225.06;5011257;28;20076;-83
2023/01/30 00:11:22;;;;;;;19.55;9.85;;;;;;;4.47;54.47;101223.25;5011048;28;20057;-81
2023/01/30 00:13:49;;;;;;;16.23;9.35;;;;;;;4.64;54.42;101228.66;5011420;28;20034;-81
2023/01/30 00:16:15;;;;;;;18.27;9.45;;;;;;;4.58;54.28;101220.97;5010729;28;20034;-82
2023/01/30 00:18:41;;;;;;;18.20;10.02;;;;;;;4.63;54.37;101227.78;5010963;28;20026;-82
2023/01/30 00:21:09;;;;;;;16.40;8.95;;;;;;;4.74;54.18;101221.97;4991733;28;20041;-81
2023/01/30 00:23:36;;;;;;;16.00;9.07;;;;;;;4.64;54.26;101223.34;5010822;28;20033;-83
2023/01/30 00:26:02;;;;;;;16.75;8.45;;;;;;;4.60;54.51;101213.75;5010705;28;20054;-82
2023/01/30 00:28:27;;;;;;;16.65;6.93;;;;;;;4.61;54.42;101208.38;5010673;28;20172;-81
2023/01/30 00:30:54;;;;;;;13.50;9.02;;;;;;;4.65;54.24;101211.72;5009913;28;20537;-81
2023/01/30 00:33:22;;;;;;;17.02;9.50;;;;;;;4.58;54.21;101197.00;5010385;28;20531;-83
2023/01/30 00:35:49;;;;;;;17.58;9.55;;;;;;;4.74;54.14;101216.66;5009359;28;20041;-82
2023/01/30 00:38:16;;;;;;;16.95;9.88;;;;;;;4.77;53.85;101209.34;5010836;28;20724;-82
2023/01/30 00:40:42;;;;;;;17.55;10.13;;;;;;;4.81;54.09;101218.06;5011248;28;20037;-83
2023/01/30 00:48:46;;;;;;;17.88;9.90;;;;;;;4.65;54.40;101207.25;5011197;28;20036;-84
2023/01/30 00:51:12;;;;;;;14.95;8.40;;;;;;;4.72;53.90;101198.06;5012019;28;20033;-82
2023/01/30 00:53:37;;;;;;;17.00;8.82;;;;;;;4.65;54.08;101199.28;5011710;28;20029;-81
2023/01/30 00:56:03;;;;;;;11.00;6.93;;;;;;;4.68;53.92;101192.97;5014619;28;20052;-80
2023/01/30 00:58:28;;;;;;;16.17;9.43;;;;;;;4.61;53.62;101189.72;5013386;28;20121;-81
2023/01/30 01:00:55;;;;;;;16.83;8.23;;;;;;;4.36;53.98;101174.03;5016109;28;20034;-81
2023/01/30 01:03:20;;;;;;;21.38;9.65;;;;;;;4.58;54.14;101205.84;5025773;28;20037;-82
2023/01/30 01:05:46;;;;;;;16.85;9.10;;;;;;;4.51;54.11;101203.53;5022985;28;20026;-82
2023/01/30 01:08:11;;;;;;;15.93;7.97;;;;;;;4.50;54.70;101193.81;5020252;28;20466;-81
2023/01/30 01:10:37;;;;;;;17.65;8.70;;;;;;;4.64;54.10;101196.69;5017353;28;20460;-81
2023/01/30 01:13:05;;;;;;;15.55;8.77;;;;;;;4.55;54.03;101190.00;5018647;28;20026;-82
2023/01/30 01:15:32;;;;;;;16.60;7.97;;;;;;;4.62;53.83;101195.88;5016794;28;20061;-82
2023/01/30 01:17:57;;;;;;;15.50;8.57;;;;;;;4.74;53.80;101195.31;5021888;28;20078;-83
2023/01/30 01:20:23;;;;;;;15.50;8.68;;;;;;;4.57;53.45;101187.25;5029152;28;20022;-81
2023/01/30 01:22:53;;;;;;;17.58;8.70;;;;;;;4.37;53.82;101173.09;5030420;28;20037;-82
2023/01/30 01:25:18;;;;;;;16.23;7.90;;;;;;;4.42;54.22;101183.53;5024000;28;20412;-81
2023/01/30 01:27:45;;;;;;;15.93;8.93;;;;;;;4.31;54.27;101162.72;5009587;28;20105;-83
2023/01/30 01:30:11;;;;;;;17.13;8.43;;;;;;;4.45;53.90;101180.72;5010160;28;20034;-80
2023/01/30 01:32:36;;;;;;;17.63;9.25;;;;;;;4.51;54.38;101187.56;5009565;28;20058;-81
2023/01/30 01:35:02;;;;;;;18.35;8.40;;;;;;;4.35;54.53;101166.97;5009802;28;20477;-80
2023/01/30 01:37:28;;;;;;;17.95;9.15;;;;;;;4.25;55.15;101186.13;5009898;28;20037;-81
2023/01/30 01:42:38;;;;;;;18.13;9.07;;;;;;;4.31;55.23;101186.69;5013491;28;20033;-81
2023/01/30 01:45:03;;;;;;;16.00;8.98;;;;;;;4.36;55.31;101182.03;5014349;28;20434;-82
2023/01/30 01:47:31;;;;;;;12.77;7.90;;;;;;;4.48;54.88;101182.38;5013890;28;20022;-82
2023/01/30 01:49:56;;;;;;;14.10;9.07;;;;;;;4.48;55.15;101182.38;5016319;28;20030;-82
2023/01/30 01:52:22;;;;;;;14.95;8.70;;;;;;;4.59;54.84;101175.59;5013898;28;20022;-81
2023/01/30 01:55:00;;;;;;;13.52;8.32;;;;;;;4.62;54.88;101169.25;5010847;28;20041;-81
2023/01/30 01:57:53;;;;;;;15.88;8.65;;;;;;;4.65;54.45;101163.78;5011806;28;20052;-82
2023/01/30 02:00:20;;;;;;;15.30;8.88;;;;;;;4.77;54.41;101165.88;5011392;28;20041;-82
2023/01/30 02:02:55;;;;;;;17.00;8.75;;;;;;;4.72;54.01;101170.53;5011019;28;20048;-82
2023/01/30 02:05:21;;;;;;;18.25;9.90;;;;;;;4.62;54.29;101158.59;5010686;28;20034;-82
2023/01/30 02:08:07;;;;;;;17.08;8.70;;;;;;;4.75;54.10;101173.06;5011135;28;20591;-82
2023/01/30 02:10:48;;;;;;;13.50;8.30;;;;;;;4.72;53.97;101158.09;5010119;28;20042;-81
2023/01/30 02:13:14;;;;;;;14.85;8.65;;;;;;;4.76;53.55;101161.47;5010697;28;20061;-82
2023/01/30 02:15:39;;;;;;;12.57;7.30;;;;;;;4.65;54.18;101164.63;5010448;28;20147;-82
2023/01/30 02:18:05;;;;;;;18.60;8.57;;;;;;;4.75;54.15;101160.59;5010250;28;20026;-81
2023/01/30 02:21:12;;;;;;;16.25;8.13;;;;;;;4.86;53.84;101168.91;5010849;28;20582;-83
2023/01/30 02:24:07;;;;;;;15.23;8.48;;;;;;;4.75;53.87;101165.06;4933507;29;20031;-82
2023/01/30 02:26:38;;;;;;;14.25;8.00;;;;;;;4.82;53.83;101167.38;4890945;29;20060;-82
2023/01/30 02:29:25;;;;;;;18.33;7.97;;;;;;;4.85;53.82;101167.22;4895487;29;20485;-81
2023/01/30 02:32:18;;;;;;;14.27;8.18;;;;;;;4.73;54.00;101156.28;4895293;29;20052;-81
2023/01/30 02:34:46;;;;;;;15.38;8.90;;;;;;;4.80;53.93;101158.56;4894972;29;20048;-82
2023/01/30 02:37:20;;;;;;;11.50;6.88;;;;;;;4.62;53.90;101163.91;4895195;29;20178;-82
2023/01/30 02:40:27;;;;;;;16.05;8.80;;;;;;;4.65;54.16;101161.97;4894803;29;20033;-80
2023/01/30 02:42:58;;;;;;;19.15;8.43;;;;;;;4.56;54.29;101150.91;4857393;29;20069;-81
2023/01/30 02:45:38;;;;;;;14.15;8.68;;;;;;;4.60;54.37;101156.03;4857997;29;20154;-81
2023/01/30 02:48:04;;;;;;;17.45;8.77;;;;;;;4.51;55.28;101155.59;4858513;29;20073;-82
2023/01/30 02:50:55;;;;;;;16.35;9.75;;;;;;;4.61;56.10;101156.88;4858107;29;20084;-82
2023/01/30 02:53:21;;;;;;;18.42;9.27;;;;;;;4.56;56.84;101169.53;4856784;29;20045;-81
2023/01/30 02:55:47;;;;;;;21.02;10.73;;;;;;;4.54;57.70;101150.13;4857612;29;20038;-81
2023/01/30 02:58:14;;;;;;;20.45;10.13;;;;;;;4.53;58.69;101161.69;4857469;29;20816;-83
2023/01/30 03:00:52;;;;;;;18.75;10.13;;;;;;;4.51;59.08;101164.44;4889964;29;20062;-83
2023/01/30 03:03:45;;;;;;;22.83;10.23;;;;;;;4.54;59.61;101160.78;4949859;28;20422;-80
2023/01/30 03:06:10;;;;;;;17.95;9.70;;;;;;;4.56;59.38;101161.56;4913049;29;20040;-81
2023/01/30 03:08:54;;;;;;;18.05;9.93;;;;;;;4.60;60.08;101160.47;4913482;29;20509;-81
2023/01/30 03:11:27;;;;;;;21.17;10.18;;;;;;;4.58;59.74;101163.22;4913528;29;20119;-82
2023/01/30 03:14:12;;;;;;;20.17;11.63;;;;;;;4.50;59.61;101143.19;4913431;29;20384;-82
2023/01/30 03:16:39;;;;;;;21.88;11.10;;;;;;;4.61;59.67;101159.56;4913645;29;20103;-82
2023/01/30 03:19:10;;;;;;;19.23;10.27;;;;;;;4.68;59.58;101156.50;4956153;28;20045;-82
2023/01/30 03:21:41;;;;;;;18.35;10.27;;;;;;;4.61;59.49;101141.78;4970745;28;20034;-82
2023/01/30 03:24:07;;;;;;;22.20;11.70;;;;;;;4.65;59.25;101150.44;4971009;28;20046;-82
2023/01/30 03:26:36;;;;;;;18.60;10.20;;;;;;;4.53;59.41;101153.72;4970151;28;20063;-81
2023/01/30 03:29:02;;;;;;;19.63;10.57;;;;;;;4.46;59.62;101141.66;4970893;28;20070;-81
2023/01/30 03:31:27;;;;;;;26.67;12.15;;;;;;;4.39;60.07;101138.41;4970370;28;20078;-81
2023/01/30 03:33:53;;;;;;;27.30;11.38;;;;;;;4.22;60.69;101131.22;4970928;28;20089;-82
2023/01/30 03:36:18;;;;;;;24.35;11.98;;;;;;;4.40;61.04;101154.28;4970554;28;20213;-81
2023/01/30 03:38:45;;;;;;;29.52;12.05;;;;;;;4.40;61.03;101146.31;4970013;28;20597;-83
2023/01/30 03:41:10;;;;;;;22.92;11.60;;;;;;;4.40;60.73;101140.16;4969847;28;20123;-80
2023/01/30 03:43:36;;;;;;;23.63;12.73;;;;;;;4.49;60.71;101146.81;4998539;28;20053;-80
2023/01/30 03:46:02;;;;;;;24.83;12.63;;;;;;;4.48;60.67;101156.59;5011249;28;20034;-82
2023/01/30 03:48:27;;;;;;;22.63;10.98;;;;;;;4.48;60.39;101148.63;5011358;28;20034;-82
2023/01/30 03:50:53;;;;;;;26.65;13.15;;;;;;;4.47;60.39;101146.00;5011771;28;20033;-81
2023/01/30 03:53:18;;;;;;;27.90;12.93;;;;;;;4.51;60.81;101150.25;5011613;28;20403;-81
2023/01/30 03:55:44;;;;;;;23.85;11.10;;;;;;;4.51;61.41;101142.28;5011056;28;20104;-83
2023/01/30 03:58:10;;;;;;;25.00;12.65;;;;;;;4.44;61.27;101148.81;5011844;28;20087;-82
2023/01/30 04:00:35;;;;;;;18.77;10.48;;;;;;;4.45;61.32;101138.13;5011414;28;20030;-81
2023/01/30 04:03:00;;;;;;;19.85;10.27;;;;;;;4.48;61.80;101140.63;5011485;28;20044;-82
2023/01/30 04:05:26;;;;;;;24.73;11.73;;;;;;;4.41;61.71;101133.88;5011343;28;20029;-82
2023/01/30 04:07:55;;;;;;;21.17;10.65;;;;;;;4.38;61.66;101134.88;5011271;28;20026;-83
2023/01/30 04:10:21;;;;;;;20.67;11.40;;;;;;;4.30;61.69;101126.41;5010735;28;20034;-82
2023/01/30 04:12:46;;;;;;;23.40;12.85;;;;;;;4.31;62.18;101132.59;5010367;28;20409;-82
2023/01/30 04:15:12;;;;;;;27.70;12.82;;;;;;;4.22;62.55;101138.34;5011237;28;20046;-82
2023/01/30 04:17:37;;;;;;;25.38;12.23;;;;;;;3.80;63.08;101110.13;5010930;28;20032;-82
2023/01/30 04:20:04;;;;;;;24.83;11.55;;;;;;;4.04;63.87;101139.19;5010832;28;20413;-80
2023/01/30 04:22:29;;;;;;;24.00;12.10;;;;;;;4.06;63.70;101140.88;5010704;28;20040;-83
2023/01/30 04:24:54;;;;;;;20.98;11.75;;;;;;;4.14;63.66;101145.81;5010728;28;20037;-81
2023/01/30 04:27:20;;;;;;;23.55;12.05;;;;;;;3.98;64.11;101124.38;5010753;28;20058;-82
2023/01/30 04:29:45;;;;;;;23.30;12.02;;;;;;;4.10;64.23;101134.44;5009864;28;20076;-82
2023/01/30 04:32:11;;;;;;;21.85;12.23;;;;;;;4.16;64.13;101149.28;5010389;28;20022;-82
2023/01/30 04:34:36;;;;;;;26.10;12.95;;;;;;;4.12;64.05;101132.59;5010990;28;20025;-82
2023/01/30 04:37:02;;;;;;;22.00;12.95;;;;;;;4.17;64.26;101145.69;5011072;28;20055;-83
2023/01/30 04:39:27;;;;;;;25.38;13.07;;;;;;;4.13;64.29;101144.94;5010522;28;20104;-77
2023/01/30 04:41:53;;;;;;;28.00;14.90;;;;;;;4.06;63.99;101135.53;5009885;28;20034;-78
2023/01/30 04:44:18;;;;;;;21.90;13.20;;;;;;;4.09;64.42;101143.38;5010644;28;20121;-78
2023/01/30 04:46:43;;;;;;;20.65;11.93;;;;;;;4.16;64.23;101138.66;5009891;28;20537;-80
2023/01/30 04:49:09;;;;;;;20.83;10.95;;;;;;;4.17;64.57;101143.88;5011362;28;20551;-81
2023/01/30 04:51:35;;;;;;;23.67;12.23;;;;;;;4.23;64.49;101140.06;5013192;28;20022;-83
2023/01/30 04:54:00;;;;;;;25.35;13.00;;;;;;;4.17;64.22;101137.69;5012206;28;20030;-81
2023/01/30 04:56:26;;;;;;;23.27;12.38;;;;;;;4.24;64.13;101148.00;5010400;28;20107;-77
2023/01/30 04:58:51;;;;;;;25.92;13.40;;;;;;;4.25;64.37;101143.53;5010218;28;20034;-78
2023/01/30 05:01:23;;;;;;;21.77;12.20;;;;;;;4.23;64.38;101130.28;5010490;28;20539;-81
2023/01/30 05:03:53;;;;;;;25.83;13.75;;;;;;;4.25;64.47;101138.22;5011213;28;20045;-80
2023/01/30 05:06:19;;;;;;;58.35;27.77;;;;;;;4.29;64.58;101140.66;5011084;28;20072;-83
2023/01/30 05:08:49;;;;;;;24.52;13.98;;;;;;;4.38;64.42;101145.53;5019906;28;20013;-81
2023/01/30 05:11:15;;;;;;;32.13;14.82;;;;;;;4.28;64.43;101138.06;5032500;28;20058;-84
2023/01/30 05:13:42;;;;;;;24.10;13.38;;;;;;;4.14;64.51;101125.38;5026572;28;20034;-82
2023/01/30 05:16:07;;;;;;;33.88;16.67;;;;;;;4.07;64.96;101139.03;5015673;28;20109;-81
2023/01/30 05:18:33;;;;;;;32.75;15.93;;;;;;;4.10;65.75;101134.44;5018070;28;20056;-79
2023/01/30 05:21:07;;;;;;;22.70;13.70;;;;;;;4.03;65.68;101134.81;5017168;28;20030;-80
2023/01/30 05:23:33;;;;;;;25.73;14.38;;;;;;;3.96;65.92;101131.56;5013815;28;20022;-80
2023/01/30 05:25:59;;;;;;;30.90;15.43;;;;;;;4.01;66.15;101137.53;5013739;28;20061;-78
2023/01/30 05:28:25;;;;;;;28.55;16.23;;;;;;;3.96;66.33;101136.91;5015327;28;20026;-84
2023/01/30 05:30:51;;;;;;;32.13;16.05;;;;;;;3.88;66.78;101140.84;5017887;28;20029;-76
2023/01/30 05:33:16;;;;;;;30.25;15.63;;;;;;;3.86;67.01;101135.56;5011095;28;20453;-80
2023/01/30 05:35:46;;;;;;;29.73;16.63;;;;;;;3.80;67.13;101141.19;5013625;28;20509;-77
2023/01/30 05:38:12;;;;;;;27.08;14.23;;;;;;;3.59;67.12;101147.47;5013081;28;20112;-85
2023/01/30 05:40:37;;;;;;;28.27;16.20;;;;;;;3.54;67.61;101133.53;5013658;28;20032;-81
2023/01/30 05:43:03;;;;;;;29.95;16.00;;;;;;;3.61;68.44;101142.94;5012690;28;20026;-79
2023/01/30 05:45:28;;;;;;;31.58;17.05;;;;;;;3.65;68.59;101142.75;5012903;28;20026;-81
2023/01/30 05:47:53;;;;;;;29.92;15.32;;;;;;;3.76;68.60;101152.91;5011489;28;20030;-80
2023/01/30 05:50:19;;;;;;;31.17;16.58;;;;;;;3.86;68.90;101143.56;5012778;28;20026;-80
2023/01/30 05:52:44;;;;;;;34.75;15.77;;;;;;;3.83;68.81;101149.03;5011661;28;20049;-80
2023/01/30 05:55:10;;;;;;;28.55;16.40;;;;;;;3.87;68.46;101153.28;5012816;28;20485;-80
2023/01/30 05:57:35;;;;;;;37.30;17.77;;;;;;;3.97;68.12;101153.72;5012759;28;20018;-79
2023/01/30 06:00:01;;;;;;;29.27;15.65;;;;;;;3.85;68.44;101132.06;5012695;28;20030;-81
2023/01/30 06:02:26;;;;;;;33.42;16.73;;;;;;;3.96;67.88;101146.66;5013083;28;20026;-80
2023/01/30 06:04:52;;;;;;;29.00;16.48;;;;;;;4.07;67.79;101139.03;5012226;28;20481;-82
2023/01/30 06:07:17;;;;;;;32.38;16.92;;;;;;;4.03;66.98;101149.00;5011780;28;20076;-80
2023/01/30 06:09:42;;;;;;;30.88;16.75;;;;;;;4.06;66.80;101146.19;5010904;28;20036;-80
2023/01/30 06:12:08;;;;;;;40.58;18.05;;;;;;;3.96;66.64;101136.91;5011904;28;20437;-80
2023/01/30 06:14:33;;;;;;;32.72;18.20;;;;;;;4.01;66.93;101145.53;5012091;28;20033;-80
2023/01/30 06:16:59;;;;;;;31.05;17.27;;;;;;;3.89;66.68;101146.09;5011828;28;20025;-80
2023/01/30 06:19:24;;;;;;;31.70;15.80;;;;;;;4.00;66.11;101143.81;5012382;28;20440;-80
2023/01/30 06:21:49;;;;;;;37.63;18.70;;;;;;;4.07;65.81;101139.91;5011517;28;20568;-81
2023/01/30 06:24:15;;;;;;;35.47;17.23;;;;;;;4.09;65.22;101142.50;5012003;28;20056;-81
2023/01/30 06:26:40;;;;;;;37.38;17.35;;;;;;;3.84;65.19;101141.00;5011872;28;20056;-81
2023/01/30 06:29:06;;;;;;;29.88;14.07;;;;;;;3.85;65.36;101133.88;5009377;28;20068;-80
2023/01/30 06:31:31;;;;;;;31.27;15.02;;;;;;;4.01;64.87;101134.88;5011708;28;20026;-79
2023/01/30 06:33:57;;;;;;;32.83;14.55;;;;;;;4.09;64.89;101132.75;5013018;28;20478;-78
2023/01/30 06:36:22;;;;;;;39.05;18.55;;;;;;;4.16;64.42;101134.16;5011735;28;20409;-80
2023/01/30 06:38:47;;;;;;;35.75;16.30;;;;;;;4.23;64.19;101135.59;5011733;28;20045;-80
2023/01/30 06:41:13;;;;;;;24.60;14.38;;;;;;;4.30;63.80;101137.06;5011857;28;20026;-79
2023/01/30 06:43:41;;;;;;;24.55;14.18;;;;;;;4.27;63.05;101121.22;5011044;28;20030;-81
2023/01/30 06:46:06;;;;;;;27.48;14.63;;;;;;;4.34;63.16;101132.44;5011347;28;20080;-79
2023/01/30 06:48:31;;;;;;;28.88;14.52;;;;;;;4.36;62.78;101125.25;5011156;28;20030;-80
2023/01/30 06:50:57;;;;;;;31.25;17.52;;;;;;;4.36;63.08;101126.09;5012147;28;20038;-80
2023/01/30 06:53:28;;;;;;;25.73;14.68;;;;;;;4.26;62.51;101108.84;5011618;28;20064;-81
2023/01/30 06:55:55;;;;;;;27.25;15.20;;;;;;;4.18;62.66;101118.13;5010927;28;20148;-82
2023/01/30 06:58:20;;;;;;;26.20;13.63;;;;;;;4.01;62.52;101108.25;5011345;28;20564;-81
2023/01/30 07:00:46;;;;;;;30.35;17.83;;;;;;;4.26;63.25;101119.50;5011098;28;20130;-81
2023/01/30 07:03:16;;;;;;;35.70;17.20;;;;;;;4.35;63.53;101118.19;5010756;28;20421;-80
2023/01/30 07:05:43;;;;;;;27.23;15.02;;;;;;;4.44;63.53;101115.06;5010869;28;20056;-80
2023/01/30 07:08:10;;;;;;;39.55;19.35;;;;;;;4.42;63.21;101118.75;5011120;28;20485;-80
2023/01/30 07:10:35;;;;;;;36.42;20.13;;;;;;;4.34;63.70;101117.31;5010554;28;20033;-80
2023/01/30 07:13:01;;;;;;;47.38;19.08;;;;;;;4.38;64.42;101118.91;5010771;28;20026;-80
2023/01/30 07:15:27;;;;;;;41.75;17.77;;;;;;;4.25;64.37;101112.44;5010925;28;20033;-80
2023/01/30 07:17:53;;;;;;;42.63;19.98;;;;;;;4.44;64.16;101116.88;5011633;28;20451;-79
2023/01/30 07:20:18;;;;;;;40.85;19.02;;;;;;;4.44;63.87;101107.09;5010724;28;20058;-80
2023/01/30 07:22:54;;;;;;;39.28;19.60;;;;;;;4.55;64.25;101117.22;5011574;28;20065;-80
2023/01/30 07:25:23;;;;;;;39.00;19.27;;;;;;;4.46;64.52;101110.56;5011488;28;20462;-79
2023/01/30 07:27:54;;;;;;;39.38;19.92;;;;;;;4.48;65.19;101123.78;5010730;28;20050;-79
2023/01/30 07:30:19;;;;;;;48.78;20.63;;;;;;;4.53;64.59;101121.75;5010497;28;20066;-79
2023/01/30 07:32:53;;;;;;;45.35;20.88;;;;;;;4.57;64.33;101123.34;5008299;28;20030;-81
2023/01/30 07:35:20;;;;;;;38.20;18.83;;;;;;;4.56;65.07;101108.28;5009773;28;20132;-80
2023/01/30 07:37:47;;;;;;;33.85;19.60;;;;;;;4.65;64.71;101118.47;5008556;28;20497;-79
2023/01/30 07:40:13;;;;;;;40.35;19.98;;;;;;;4.58;64.15;101104.63;5010222;28;20030;-79
2023/01/30 07:42:38;;;;;;;34.40;20.13;;;;;;;4.77;64.12;101116.06;5010711;28;20041;-80
2023/01/30 07:45:04;;;;;;;31.35;17.88;;;;;;;4.87;63.89;101108.50;5011154;28;20068;-80
2023/01/30 07:47:29;;;;;;;43.58;17.88;;;;;;;4.91;63.82;101112.75;5011530;28;20026;-79
2023/01/30 07:49:55;;;;;;;36.47;18.83;;;;;;;4.87;63.52;101101.38;5011742;28;20034;-82
2023/01/30 07:52:21;;;;;;;38.03;19.35;;;;;;;4.96;63.47;101116.03;5011200;28;20393;-80
2023/01/30 07:54:46;;;;;;;41.97;20.30;;;;;;;4.97;63.00;101109.75;5011095;28;20483;-80
2023/01/30 07:57:11;;;;;;;49.78;20.83;;;;;;;4.82;63.27;101091.88;5011101;28;20616;-80
2023/01/30 07:59:37;;;;;;;29.55;16.42;;;;;;;4.93;62.55;101101.06;5010952;28;20040;-79
2023/01/30 08:02:02;;;;;;;49.33;22.10;;;;;;;4.74;62.99;101104.75;5011643;28;20026;-80
2023/01/30 08:04:28;;;;;;;44.85;20.10;;;;;;;4.76;63.11;101106.38;5010578;28;20603;-79
2023/01/30 08:06:53;;;;;;;30.98;16.40;;;;;;;4.76;62.74;101097.53;5010707;28;20030;-81
2023/01/30 08:09:19;;;;;;;29.60;15.60;;;;;;;4.54;63.10;101099.50;5010479;28;20026;-81
2023/01/30 08:11:44;;;;;;;32.67;16.50;;;;;;;4.53;63.04;101095.97;5010679;28;20105;-80
2023/01/30 08:14:10;;;;;;;35.97;17.75;;;;;;;4.61;63.22;101092.97;5010352;28;20026;-80
2023/01/30 08:16:35;;;;;;;32.72;16.30;;;;;;;4.64;62.99;101092.81;5010732;28;20076;-80
2023/01/30 08:19:04;;;;;;;39.03;16.67;;;;;;;4.73;62.91;101089.69;5010276;28;20096;-80
2023/01/30 08:21:29;;;;;;;33.55;17.23;;;;;;;4.62;62.01;101073.34;5010070;28;20084;-81
2023/01/30 08:23:54;;;;;;;53.40;21.30;;;;;;;4.51;62.72;101078.34;5010034;28;20034;-80
2023/01/30 08:26:20;;;;;;;42.58;18.27;;;;;;;4.75;62.37;101079.78;5009656;28;20046;-80
2023/01/30 08:28:45;;;;;;;39.72;16.85;;;;;;;4.57;61.28;101067.41;5010016;28;20033;-81
2023/01/30 08:31:13;;;;;;;31.27;15.75;;;;;;;4.59;62.00;101057.53;5010146;28;20029;-81
2023/01/30 08:33:38;;;;;;;36.35;16.88;;;;;;;4.83;61.91;101072.31;5010460;28;20030;-80
2023/01/30 08:36:04;;;;;;;58.60;19.17;;;;;;;4.89;62.38;101072.00;5009844;28;20030;-80
2023/01/30 08:38:30;;;;;;;29.92;14.57;;;;;;;5.00;61.67;101069.63;5010032;28;20029;-79
2023/01/30 08:40:56;;;;;;;32.42;14.30;;;;;;;5.00;60.65;101063.44;5010449;28;20032;-79
2023/01/30 08:43:23;;;;;;;26.95;13.65;;;;;;;5.14;60.77;101067.09;5009955;28;20026;-81
2023/01/30 08:45:48;;;;;;;26.55;14.07;;;;;;;5.21;60.42;101060.50;5010066;28;20061;-80
2023/01/30 08:48:14;;;;;;;27.33;13.93;;;;;;;5.36;60.25;101062.38;5010098;28;20109;-80
2023/01/30 08:50:39;;;;;;;56.40;15.20;;;;;;;5.45;60.30;101056.53;5009531;28;20025;-79
2023/01/30 08:53:07;;;;;;;31.05;13.05;;;;;;;5.53;59.57;101052.63;5010200;28;20017;-81
2023/01/30 08:55:33;;;;;;;32.80;15.27;;;;;;;5.49;59.85;101042.09;5010963;28;20037;-81
2023/01/30 08:57:59;;;;;;;33.92;13.75;;;;;;;5.49;59.61;101036.78;5010091;28;20345;-80
2023/01/30 09:00:25;;;;;;;24.05;14.20;;;;;;;5.48;59.52;101031.50;5009648;28;20438;-81
2023/01/30 09:02:57;;;;;;;32.88;14.60;;;;;;;5.47;59.31;101032.47;5010240;28;20022;-80
2023/01/30 09:05:23;;;;;;;32.85;14.82;;;;;;;5.45;59.54;101019.19;5010402;28;20155;-80
2023/01/30 09:07:49;;;;;;;51.17;16.42;;;;;;;5.59;59.78;101029.13;5011411;28;20036;-82
2023/01/30 09:10:15;;;;;;;37.15;14.82;;;;;;;5.70;59.42;101026.72;5010710;28;20033;-81
2023/01/30 09:12:40;;;;;;;35.53;15.38;;;;;;;5.66;59.50;100995.81;5009852;28;20425;-80
2023/01/30 09:15:07;;;;;;;36.42;15.25;;;;;;;5.64;59.70;100999.53;5010528;28;20032;-80
2023/01/30 09:17:32;;;;;;;41.00;16.73;;;;;;;5.84;59.82;101016.16;5010319;28;20022;-82
2023/01/30 09:19:58;;;;;;;37.55;18.42;;;;;;;6.03;59.07;101005.34;5010844;28;20037;-81
2023/01/30 09:22:23;;;;;;;43.97;18.05;;;;;;;6.09;58.89;101004.13;4981713;28;20065;-81
2023/01/30 09:24:48;;;;;;;48.72;19.27;;;;;;;6.07;58.61;100982.88;5034066;28;20534;-81
2023/01/30 09:27:14;;;;;;;54.47;20.90;;;;;;;6.06;58.67;100978.47;5031467;28;20053;-81
2023/01/30 09:29:39;;;;;;;58.63;20.50;;;;;;;5.96;58.75;100982.63;5012761;28;20390;-80
2023/01/30 09:32:05;;;;;;;42.22;17.90;;;;;;;5.98;59.31;100978.91;5011966;28;20477;-80
2023/01/30 09:34:30;;;;;;;52.80;21.65;;;;;;;6.22;59.31;100976.63;5013435;28;20481;-80
2023/01/30 09:36:59;;;;;;;49.78;17.83;;;;;;;6.15;59.02;100974.41;5008860;28;20096;-80
2023/01/30 09:39:25;;;;;;;50.25;19.33;;;;;;;6.27;59.08;100966.53;5009758;28;20027;-82
2023/01/30 09:42:06;;;;;;;43.22;17.85;;;;;;;6.35;59.14;100966.09;5009540;28;20061;-81
2023/01/30 09:44:34;;;;;;;52.53;19.45;;;;;;;6.42;58.97;100962.13;5009679;28;20527;-80
2023/01/30 09:47:15;;;;;;;50.35;20.15;;;;;;;6.46;58.60;100956.50;5009261;28;20501;-80
2023/01/30 09:49:59;;;;;;;41.22;19.13;;;;;;;6.37;58.77;100950.84;5009382;28;20026;-81
2023/01/30 09:52:50;;;;;;;47.90;19.08;;;;;;;6.54;58.34;100954.22;5012033;28;20143;-80
2023/01/30 09:55:23;;;;;;;40.85;17.98;;;;;;;6.50;58.12;100941.16;5009589;28;20091;-80
2023/01/30 09:57:50;;;;;;;53.92;18.27;;;;;;;6.60;58.50;100947.69;5009465;28;20026;-79
2023/01/30 10:00:32;;;;;;;57.90;19.83;;;;;;;6.52;58.14;100937.44;5009340;28;20072;-80
2023/01/30 10:03:09;;;;;;;62.58;25.02;;;;;;;6.31;58.70;100932.50;5011731;28;20018;-80
2023/01/30 10:05:58;;;;;;;49.10;23.95;;;;;;;6.49;58.68;100924.25;5012549;28;20390;-81
2023/01/30 10:08:48;;;;;;;39.22;19.73;;;;;;;6.59;58.19;100924.56;5012981;28;20041;-81
2023/01/30 10:11:23;;;;;;;35.47;17.65;;;;;;;6.55;58.17;100907.84;5013079;28;20044;-80
2023/01/30 10:14:23;;;;;;;31.42;17.05;;;;;;;6.77;58.27;100901.19;5012924;28;20084;-80
2023/01/30 10:17:13;;;;;;;30.38;16.15;;;;;;;6.83;57.13;100906.19;5012934;28;20028;-80
2023/01/30 10:19:53;;;;;;;35.75;18.27;;;;;;;6.74;57.26;100904.06;5012849;28;20425;-80
2023/01/30 10:22:29;;;;;;;25.90;16.15;;;;;;;6.41;57.75;100894.47;5012407;28;20041;-81
2023/01/30 10:25:14;;;;;;;30.33;18.40;;;;;;;6.46;58.02;100900.41;5012695;28;20037;-79
2023/01/30 10:28:00;;;;;;;27.92;15.88;;;;;;;6.23;58.47;100876.88;5013646;28;20517;-83
2023/01/30 10:30:26;;;;;;;27.13;16.00;;;;;;;6.47;58.76;100883.44;5012151;28;20037;-81
2023/01/30 10:33:01;;;;;;;23.98;13.65;;;;;;;6.55;57.79;100875.78;5012287;28;20033;-80
2023/01/30 10:35:32;;;;;;;26.58;13.93;;;;;;;6.45;57.92;100885.31;5012496;28;20036;-80
2023/01/30 10:38:01;;;;;;;26.48;15.25;;;;;;;6.49;57.67;100867.28;5012243;28;20026;-81
2023/01/30 10:40:46;;;;;;;40.67;17.02;;;;;;;6.53;58.12;100861.69;5012315;28;20475;-81
2023/01/30 10:43:28;;;;;;;28.63;15.13;;;;;;;6.73;57.47;100862.28;5012107;28;20129;-81
2023/01/30 10:45:56;;;;;;;;;;;;;;;6.98;56.84;100862.44;5013443;28;20504;-80
2023/01/30 10:48:45;;;;;;;22.20;11.40;;;;;;;7.08;56.48;100859.09;5013571;28;19910;-80
2023/01/30 10:51:41;;;;;;;17.15;10.77;;;;;;;7.10;55.48;100840.28;5012112;28;20448;-81
2023/01/30 10:54:19;;;;;;;22.33;12.32;;;;;;;7.28;55.27;100838.25;5012377;28;20022;-81
2023/01/30 10:56:47;;;;;;;45.70;14.65;;;;;;;7.53;55.47;100833.88;5012381;28;20037;-81
2023/01/30 10:59:31;;;;;;;18.83;11.48;;;;;;;7.79;54.45;100823.28;5012158;28;20026;-81
2023/01/30 11:02:00;;;;;;;21.48;12.45;;;;;;;7.97;53.84;100822.03;5012018;28;20036;-80
2023/01/30 11:04:34;;;;;;;42.28;15.20;;;;;;;8.11;53.61;100817.44;5011776;28;20038;-81
2023/01/30 11:07:01;;;;;;;31.02;13.95;;;;;;;8.23;52.41;100807.72;5011749;28;20038;-79
2023/01/30 11:09:46;;;;;;;34.38;13.68;;;;;;;8.52;52.27;100793.19;5015807;28;20029;-81
2023/01/30 11:12:12;;;;;;;24.38;13.43;;;;;;;8.55;51.32;100797.47;5011639;28;20034;-81
2023/01/30 11:14:57;;;;;;;24.77;14.45;;;;;;;8.57;50.87;100795.53;5010826;28;20025;-80
2023/01/30 11:17:35;;;;;;;30.05;14.52;;;;;;;8.52;51.75;100787.84;5012235;28;20060;-81
2023/01/30 11:20:23;;;;;;;37.47;16.27;;;;;;;8.55;51.96;100787.63;5011382;28;20026;-80
2023/01/30 11:23:04;;;;;;;31.85;14.95;;;;;;;8.59;51.24;100778.38;5011195;28;20041;-81
2023/01/30 11:25:29;;;;;;;30.48;15.27;;;;;;;8.69;50.86;100763.34;5011219;28;20030;-80
2023/01/30 11:28:00;;;;;;;33.15;17.35;;;;;;;8.77;51.84;100759.28;5011729;28;20030;-80
2023/01/30 11:30:28;;;;;;;31.38;17.10;;;;;;;8.65;52.33;100751.13;5010041;28;20495;-80
2023/01/30 11:33:11;;;;;;;23.10;15.07;;;;;;;8.71;52.53;100742.66;5011142;28;20038;-82
2023/01/30 11:35:51;;;;;;;22.90;14.05;;;;;;;8.62;51.87;100740.63;5011811;28;20033;-80
2023/01/30 11:38:21;;;;;;;34.25;14.13;;;;;;;8.86;51.58;100759.47;5011134;28;20018;-79